Diamond Back — WDE6773 — position and weather

sailwx.info

Track history (hours):
 
Tides and Currents Weather Stations Pressure Air Temp Water Temp Dewpoint Dewpoint Depression Visibility Wind Speed Wind Dir Waves Ship Positions

Diamond Back

Owner: PENINSULA BAY ENTERPRISES LTD CO, Port Bolivar, TX. More information available from US FCC via Universal Licensing System and Coast Guard Vessel Documentation Center.

Last reported at 2018-Jun-25 17:30 UTC. Time now 2018-Jun-25 17:50 UTC.
Position N 29°33' W 094°59'.

Length 11 m; draft 2.5 m.

Type: Towing. MMSI: 367384650.

Date/timePositionNaut miles runAvg speedWind from/ knotsBaromVisibWave heightAir tempDewpointWater temp
2018-Jun-25 17:30N 29°33' W 094°59'3 5.2
2018-Jun-25 17:01N 29°33' W 095°02'1 1.8
2018-Jun-25 16:31N 29°33' W 095°03'0 0.0
2018-Jun-25 16:00N 29°33' W 095°03'0 0.0
2018-Jun-25 15:29N 29°33' W 095°03'0 0.0
2018-Jun-25 15:00N 29°33' W 095°03'0 0.0
2018-Jun-25 14:30N 29°33' W 095°03'0 0.0
2018-Jun-25 13:59N 29°33' W 095°03'0 0.0
2018-Jun-25 13:30N 29°33' W 095°03'0 0.0
2018-Jun-25 13:00N 29°33' W 095°03'0 0.0
2018-Jun-25 12:30N 29°33' W 095°03'0 0.0
2018-Jun-25 12:00N 29°33' W 095°03'1 1.2
2018-Jun-25 11:30N 29°33' W 095°02'0 0.0
2018-Jun-25 11:00N 29°33' W 095°02'0 0.0
2018-Jun-25 10:31N 29°33' W 095°02'0 0.0
2018-Jun-25 10:01N 29°33' W 095°02'0 0.0
2018-Jun-25 09:30N 29°33' W 095°02'0 0.0
2018-Jun-25 09:00N 29°33' W 095°02'0 0.0
2018-Jun-25 08:31N 29°33' W 095°02'0 0.0
2018-Jun-25 08:00N 29°33' W 095°02'0 0.0
2018-Jun-25 07:30N 29°33' W 095°02'0 0.0
2018-Jun-25 07:00N 29°33' W 095°02'0 0.0
2018-Jun-25 06:31N 29°33' W 095°02'0 0.0
2018-Jun-25 06:01N 29°33' W 095°02'0 0.0
2018-Jun-25 05:30N 29°33' W 095°02'0 0.0
2018-Jun-25 05:00N 29°33' W 095°02'2 3.4
2018-Jun-25 04:31N 29°33' W 095°00'3 6.5
2018-Jun-25 04:01N 29°33' W 094°56'3 6.2
2018-Jun-25 03:30N 29°31' W 094°53'4 6.6
2018-Jun-25 02:51N 29°27' W 094°51'2 6.3
2018-Jun-25 02:30N 29°25' W 094°50'3 5.3
2018-Jun-25 02:00N 29°23' W 094°49'2 3.7
2018-Jun-25 01:31N 29°23' W 094°46'1 0.9
2018-Jun-25 00:58N 29°23' W 094°46'0 0.6
2018-Jun-25 00:29N 29°23' W 094°46'0 0.0
2018-Jun-24 23:59N 29°23' W 094°46'0 0.0
2018-Jun-24 23:25N 29°23' W 094°46'0 0.0
2018-Jun-24 22:58N 29°23' W 094°46'0 0.0
2018-Jun-24 22:29N 29°23' W 094°46'0 0.0
2018-Jun-24 21:56N 29°23' W 094°46'0 0.0
2018-Jun-24 21:15N 29°23' W 094°46'0 0.0
2018-Jun-24 21:00N 29°23' W 094°46'0 0.0
2018-Jun-24 20:26N 29°23' W 094°46'0 0.0
2018-Jun-24 19:58N 29°23' W 094°46'0 0.0
2018-Jun-24 19:30N 29°23' W 094°46'0 0.0
2018-Jun-24 19:00N 29°23' W 094°46'0 0.0
2018-Jun-24 18:29N 29°23' W 094°46'0 0.0
2018-Jun-24 18:00N 29°23' W 094°46'0 0.0
2018-Jun-24 17:17N 29°23' W 094°46'0 0.0
2018-Jun-24 17:00N 29°23' W 094°46'0 0.0
2018-Jun-24 01:08N 29°23' W 094°46'0 0.0
2018-Jun-23 22:15N 29°23' W 094°46'0 0.0
2018-Jun-23 21:56N 29°23' W 094°46'0 0.0
2018-Jun-23 21:26N 29°23' W 094°46'0 0.0
2018-Jun-23 20:55N 29°23' W 094°46'0 0.0
2018-Jun-23 19:17N 29°23' W 094°46'0 0.0
2018-Jun-23 18:58N 29°23' W 094°46'0 0.0
2018-Jun-23 17:20N 29°23' W 094°46'0 0.0
2018-Jun-23 17:00N 29°23' W 094°46'0 0.0
2018-Jun-23 16:30N 29°23' W 094°46'0 0.0
2018-Jun-23 16:00N 29°23' W 094°46'0 0.0
2018-Jun-23 15:26N 29°23' W 094°46'0 0.0
2018-Jun-23 15:00N 29°23' W 094°46'0 0.0
2018-Jun-23 14:31N 29°23' W 094°46'0 0.0
2018-Jun-23 14:01N 29°23' W 094°46'0 0.0
2018-Jun-23 13:29N 29°23' W 094°46'0 0.0
2018-Jun-23 12:57N 29°23' W 094°46'0 0.0
2018-Jun-23 12:29N 29°23' W 094°46'0 0.0
2018-Jun-23 12:00N 29°23' W 094°46'0 0.0
2018-Jun-23 11:26N 29°23' W 094°46'0 0.0
2018-Jun-23 11:00N 29°23' W 094°46'0 0.0
2018-Jun-23 10:30N 29°23' W 094°46'0 0.0
2018-Jun-23 09:58N 29°23' W 094°46'0 0.0
2018-Jun-23 09:30N 29°23' W 094°46'0 0.0
2018-Jun-23 08:59N 29°23' W 094°46'0 0.0
2018-Jun-23 08:28N 29°23' W 094°46'0 0.0
2018-Jun-23 07:58N 29°23' W 094°46'0 0.0
2018-Jun-23 07:20N 29°23' W 094°46'0 0.0
2018-Jun-23 06:44N 29°23' W 094°46'0 0.0
2018-Jun-23 06:30N 29°23' W 094°46'0 0.0
2018-Jun-23 06:00N 29°23' W 094°46'0 0.0
2018-Jun-23 05:30N 29°23' W 094°46'0 0.0
2018-Jun-23 05:01N 29°23' W 094°46'0 0.0
2018-Jun-23 04:30N 29°23' W 094°46'0 0.0
2018-Jun-23 04:01N 29°23' W 094°46'0 0.0
2018-Jun-23 03:30N 29°23' W 094°46'0 0.0
2018-Jun-23 03:00N 29°23' W 094°46'0 0.0
2018-Jun-23 02:30N 29°23' W 094°46'0 0.0
2018-Jun-23 02:00N 29°23' W 094°46'3 5.7
2018-Jun-23 01:30N 29°25' W 094°44'3 4.8
2018-Jun-23 00:58N 29°27' W 094°42'3 5.5
2018-Jun-23 00:30N 29°28' W 094°39'0 0.0
2018-Jun-23 00:00N 29°28' W 094°39'0 0.0
2018-Jun-22 23:28N 29°28' W 094°39'0 0.0
2018-Jun-22 23:00N 29°28' W 094°39'6 2.4
2018-Jun-22 20:26N 29°24' W 094°45'3 6.2
2018-Jun-22 19:56N 29°22' W 094°47'2 5.8
2018-Jun-22 19:30N 29°24' W 094°49'12 5.6
2018-Jun-22 17:25N 29°33' W 094°58'2 5.5
2018-Jun-22 17:00N 29°33' W 095°01'2 3.2
2018-Jun-22 16:30N 29°33' W 095°03'0 0.3
2018-Jun-22 16:00N 29°33' W 095°03'0 0.0
2018-Jun-22 15:31N 29°33' W 095°03'0 0.0
2018-Jun-22 15:01N 29°33' W 095°03'0 0.0
2018-Jun-22 14:30N 29°33' W 095°03'0 0.0
2018-Jun-22 14:00N 29°33' W 095°03'0 0.0
2018-Jun-22 13:30N 29°33' W 095°03'0 0.0
2018-Jun-22 13:01N 29°33' W 095°03'0 0.2
2018-Jun-22 12:30N 29°33' W 095°03'0 0.1
2018-Jun-22 12:00N 29°33' W 095°03'0 1.0
2018-Jun-22 11:30N 29°33' W 095°02'0 0.0
2018-Jun-22 11:00N 29°33' W 095°02'0 0.0
2018-Jun-22 10:30N 29°33' W 095°02'0 0.0
2018-Jun-22 10:00N 29°33' W 095°02'0 0.0
2018-Jun-22 09:30N 29°33' W 095°02'0 0.0
2018-Jun-22 09:00N 29°33' W 095°02'0 0.0
2018-Jun-22 08:30N 29°33' W 095°02'0 0.0
2018-Jun-22 08:01N 29°33' W 095°02'0 0.0
2018-Jun-22 07:30N 29°33' W 095°02'0 0.0
2018-Jun-22 07:00N 29°33' W 095°02'0 0.0
2018-Jun-22 06:31N 29°33' W 095°02'0 0.0
2018-Jun-22 06:00N 29°33' W 095°02'0 0.0
2018-Jun-22 05:30N 29°33' W 095°02'0 0.4
2018-Jun-22 05:00N 29°33' W 095°02'2 4.8
2018-Jun-22 04:31N 29°33' W 094°59'3 6.6
2018-Jun-22 04:00N 29°32' W 094°55'3 6.3
2018-Jun-22 03:29N 29°30' W 094°53'3 6.6
2018-Jun-22 03:00N 29°27' W 094°51'3 6.6
2018-Jun-22 02:30N 29°24' W 094°49'3 5.6
2018-Jun-22 02:00N 29°22' W 094°47'1 2.0
2018-Jun-22 01:30N 29°23' W 094°46'0 0.2
2018-Jun-22 01:00N 29°23' W 094°46'0 0.1
2018-Jun-22 00:30N 29°23' W 094°46'3 6.7
2018-Jun-22 00:00N 29°25' W 094°43'4 7.6
2018-Jun-21 23:30N 29°28' W 094°40'1 1.3
2018-Jun-21 23:00N 29°28' W 094°39'0 0.0
2018-Jun-21 22:30N 29°28' W 094°39'0 0.0
2018-Jun-21 22:00N 29°28' W 094°39'0 0.0
2018-Jun-21 21:30N 29°28' W 094°39'0 0.0
2018-Jun-21 21:00N 29°28' W 094°39'0 0.0
2018-Jun-21 20:30N 29°28' W 094°39'1 2.4
2018-Jun-21 19:57N 29°27' W 094°41'3 6.4
2018-Jun-21 19:30N 29°26' W 094°43'3 5.9
2018-Jun-21 18:59N 29°24' W 094°46'2 5.1
2018-Jun-21 18:30N 29°23' W 094°48'3 5.6
2018-Jun-21 17:58N 29°25' W 094°50'4 5.9
2018-Jun-21 17:22N 29°29' W 094°51'6 5.4
2018-Jun-21 16:12N 29°33' W 094°57'1 5.7
2018-Jun-21 15:59N 29°33' W 094°58'3 5.5
2018-Jun-21 15:30N 29°33' W 095°01'1 2.1
2018-Jun-21 15:00N 29°33' W 095°03'0 0.0
2018-Jun-21 14:30N 29°33' W 095°03'0 0.0
2018-Jun-21 14:00N 29°33' W 095°03'0 0.0
2018-Jun-21 13:31N 29°33' W 095°03'0 0.1
2018-Jun-21 13:01N 29°33' W 095°03'0 0.0
2018-Jun-21 12:31N 29°33' W 095°03'0 0.0
2018-Jun-21 12:00N 29°33' W 095°03'1 1.0
2018-Jun-21 11:31N 29°33' W 095°02'0 0.0
2018-Jun-21 11:00N 29°33' W 095°02'0 0.0
2018-Jun-21 10:30N 29°33' W 095°02'0 0.0
2018-Jun-21 10:00N 29°33' W 095°02'0 0.0
2018-Jun-21 09:31N 29°33' W 095°02'0 0.0
2018-Jun-21 09:00N 29°33' W 095°02'0 0.0
2018-Jun-21 08:31N 29°33' W 095°02'0 0.0
2018-Jun-21 08:01N 29°33' W 095°02'0 0.0
2018-Jun-21 07:31N 29°33' W 095°02'0 0.0
2018-Jun-21 07:00N 29°33' W 095°02'0 0.0
2018-Jun-21 06:30N 29°33' W 095°02'0 0.0
2018-Jun-21 06:00N 29°33' W 095°02'0 0.0
2018-Jun-21 05:30N 29°33' W 095°02'0 0.0
2018-Jun-21 05:00N 29°33' W 095°02'0 0.0
2018-Jun-21 04:30N 29°33' W 095°02'0 0.0
2018-Jun-21 04:01N 29°33' W 095°02'0 0.0
2018-Jun-21 03:31N 29°33' W 095°02'0 0.0
2018-Jun-21 03:00N 29°33' W 095°02'2 3.1
2018-Jun-21 02:30N 29°33' W 095°00'4 7.2
2018-Jun-21 01:56N 29°35' W 094°56'2 0.2
2018-Jun-20 18:21N 29°34' W 094°58'2 6.5
2018-Jun-20 18:00N 29°33' W 095°00'2 3.8
2018-Jun-20 17:30N 29°33' W 095°02'0 0.5
2018-Jun-20 17:01N 29°33' W 095°02'0 0.0
2018-Jun-20 16:30N 29°33' W 095°02'0 0.0
2018-Jun-20 16:00N 29°33' W 095°02'0 0.0
2018-Jun-20 15:30N 29°33' W 095°02'0 0.0
2018-Jun-20 15:01N 29°33' W 095°02'0 0.0
2018-Jun-20 14:30N 29°33' W 095°02'0 0.0
2018-Jun-20 14:00N 29°33' W 095°02'0 0.0
2018-Jun-20 13:22N 29°33' W 095°02'0 0.0
2018-Jun-20 13:00N 29°33' W 095°02'0 0.0
2018-Jun-20 12:30N 29°33' W 095°02'0 0.0
2018-Jun-20 12:01N 29°33' W 095°02'0 0.0
2018-Jun-20 11:30N 29°33' W 095°02'0 0.0
2018-Jun-20 11:00N 29°33' W 095°02'0 0.0
2018-Jun-20 10:29N 29°33' W 095°02'0 0.0
2018-Jun-20 09:59N 29°33' W 095°02'0 0.0
2018-Jun-20 09:30N 29°33' W 095°02'0 0.0
2018-Jun-20 09:00N 29°33' W 095°02'0 0.0
2018-Jun-20 08:29N 29°33' W 095°02'0 0.0
2018-Jun-20 08:01N 29°33' W 095°02'0 0.0
2018-Jun-20 07:29N 29°33' W 095°02'0 0.0
2018-Jun-20 07:00N 29°33' W 095°02'0 0.0
2018-Jun-20 06:30N 29°33' W 095°02'0 0.0
2018-Jun-20 05:59N 29°33' W 095°02'0 0.0
2018-Jun-20 05:31N 29°33' W 095°02'0 0.0
2018-Jun-20 04:59N 29°33' W 095°02'0 0.0
2018-Jun-20 04:30N 29°33' W 095°02'0 0.0
2018-Jun-20 04:00N 29°33' W 095°02'0 0.0
2018-Jun-20 03:30N 29°33' W 095°02'0 0.0
2018-Jun-20 03:01N 29°33' W 095°02'0 0.0
2018-Jun-20 02:27N 29°33' W 095°02'0 0.0
2018-Jun-20 02:01N 29°33' W 095°02'0 0.0
2018-Jun-20 01:30N 29°33' W 095°02'0 0.0
2018-Jun-20 01:00N 29°33' W 095°02'0 0.0
2018-Jun-20 00:30N 29°33' W 095°02'0 0.0
2018-Jun-20 00:00N 29°33' W 095°02'0 0.0
2018-Jun-19 23:30N 29°33' W 095°02'0 0.0
2018-Jun-19 23:00N 29°33' W 095°02'0 0.0
2018-Jun-19 22:30N 29°33' W 095°02'0 0.0
2018-Jun-19 22:00N 29°33' W 095°02'0 0.0
2018-Jun-19 21:31N 29°33' W 095°02'0 0.0
2018-Jun-19 20:58N 29°33' W 095°02'0 0.0
2018-Jun-19 20:30N 29°33' W 095°02'0 0.0
2018-Jun-19 20:00N 29°33' W 095°02'0 0.0
2018-Jun-19 19:31N 29°33' W 095°02'0 0.0
2018-Jun-19 19:00N 29°33' W 095°02'0 0.0
2018-Jun-19 18:30N 29°33' W 095°02'0 0.0
2018-Jun-19 18:01N 29°33' W 095°02'0 0.0
2018-Jun-19 17:30N 29°33' W 095°02'0 0.0
2018-Jun-19 17:00N 29°33' W 095°02'0 0.0
2018-Jun-19 16:29N 29°33' W 095°02'0 0.0
2018-Jun-19 16:00N 29°33' W 095°02'0 0.0
2018-Jun-19 15:31N 29°33' W 095°02'0 0.0
2018-Jun-19 14:57N 29°33' W 095°02'0 1.0
2018-Jun-19 14:30N 29°33' W 095°02'0 0.0
2018-Jun-19 14:00N 29°33' W 095°02'1 1.0
2018-Jun-19 13:30N 29°33' W 095°03'0 0.0
2018-Jun-19 13:00N 29°33' W 095°03'0 0.0
2018-Jun-19 12:30N 29°33' W 095°03'0 0.0
2018-Jun-19 12:00N 29°33' W 095°03'1 1.0
2018-Jun-19 11:30N 29°33' W 095°02'0 0.0
2018-Jun-19 11:00N 29°33' W 095°02'0 0.0
2018-Jun-19 10:30N 29°33' W 095°02'0 0.0
2018-Jun-19 10:00N 29°33' W 095°02'0 0.0
2018-Jun-19 09:30N 29°33' W 095°02'0 0.0
2018-Jun-19 09:00N 29°33' W 095°02'0 0.0
2018-Jun-19 08:30N 29°33' W 095°02'0 0.0
2018-Jun-19 08:00N 29°33' W 095°02'0 0.0
2018-Jun-19 07:30N 29°33' W 095°02'0 0.0
2018-Jun-19 07:00N 29°33' W 095°02'0 0.0
2018-Jun-19 06:31N 29°33' W 095°02'0 0.0
2018-Jun-19 06:00N 29°33' W 095°02'0 0.0
2018-Jun-19 05:30N 29°33' W 095°02'0 0.0
2018-Jun-19 05:00N 29°33' W 095°02'0 0.0
2018-Jun-19 04:30N 29°33' W 095°02'1 1.8
2018-Jun-19 04:00N 29°33' W 095°01'4 7.2
2018-Jun-19 03:30N 29°33' W 094°57'5 7.0
2018-Jun-19 02:49N 29°30' W 094°52'3 7.2
2018-Jun-19 02:20N 29°27' W 094°50'2 7.1
2018-Jun-19 02:00N 29°25' W 094°49'3 6.3
2018-Jun-19 01:30N 29°22' W 094°47'5 7.2
2018-Jun-19 00:50N 29°26' W 094°43'3 0.6
2018-Jun-18 20:27N 29°24' W 094°45'1 2.4
2018-Jun-18 20:00N 29°23' W 094°46'0 0.0
2018-Jun-18 19:21N 29°23' W 094°46'0 0.0
2018-Jun-18 18:54N 29°23' W 094°46'0 0.2
2018-Jun-18 18:25N 29°23' W 094°46'2 5.1
2018-Jun-18 17:59N 29°23' W 094°49'14 5.2
2018-Jun-18 15:20N 29°33' W 094°59'2 5.4
2018-Jun-18 15:01N 29°33' W 095°01'1 2.5
2018-Jun-18 14:30N 29°33' W 095°03'0 0.0
2018-Jun-18 14:00N 29°33' W 095°03'0 0.0
2018-Jun-18 13:30N 29°33' W 095°03'0 0.0
2018-Jun-18 13:00N 29°33' W 095°03'0 0.0
2018-Jun-18 12:30N 29°33' W 095°03'0 0.0
2018-Jun-18 12:00N 29°33' W 095°03'0 0.0
2018-Jun-18 11:30N 29°33' W 095°03'1 1.0
2018-Jun-18 11:01N 29°33' W 095°02'0 0.0
2018-Jun-18 10:31N 29°33' W 095°02'0 0.0
2018-Jun-18 10:01N 29°33' W 095°02'0 0.0
2018-Jun-18 09:30N 29°33' W 095°02'0 0.0
2018-Jun-18 09:00N 29°33' W 095°02'0 0.0
2018-Jun-18 08:30N 29°33' W 095°02'0 0.0
2018-Jun-18 08:01N 29°33' W 095°02'0 0.0
2018-Jun-18 07:30N 29°33' W 095°02'0 0.0
2018-Jun-18 07:00N 29°33' W 095°02'0 0.0
2018-Jun-18 06:30N 29°33' W 095°02'0 0.0
2018-Jun-18 06:00N 29°33' W 095°02'0 0.0
2018-Jun-18 05:30N 29°33' W 095°02'0 0.0
2018-Jun-18 05:01N 29°33' W 095°02'0 0.0
2018-Jun-18 04:31N 29°33' W 095°02'0 0.0
2018-Jun-18 04:01N 29°33' W 095°02'3 5.1
2018-Jun-18 03:30N 29°33' W 094°59'10 6.4
2018-Jun-18 02:01N 29°27' W 094°50'4 7.0
2018-Jun-18 01:31N 29°24' W 094°49'2 4.6
2018-Jun-18 01:00N 29°23' W 094°46'0 0.0
2018-Jun-16 00:53N 29°23' W 094°46'0 0.0
2018-Jun-16 00:30N 29°23' W 094°46'0 0.0
2018-Jun-16 00:00N 29°23' W 094°46'0 0.3
2018-Jun-15 23:30N 29°23' W 094°46'3 6.2
2018-Jun-15 23:00N 29°25' W 094°44'3 5.9
2018-Jun-15 22:26N 29°27' W 094°41'1 2.0
2018-Jun-15 21:44N 29°28' W 094°39'0 0.0
2018-Jun-15 21:20N 29°28' W 094°39'0 0.0
2018-Jun-15 20:14N 29°28' W 094°39'7 5.2
2018-Jun-15 18:51N 29°24' W 094°46'2 5.4
2018-Jun-15 18:30N 29°22' W 094°47'2 4.0
2018-Jun-15 17:59N 29°24' W 094°49'  
Track history (hours):
 
Tides and Currents Weather Stations Pressure Air Temp Water Temp Dewpoint Dewpoint Depression Visibility Wind Speed Wind Dir Waves Ship Positions

Diamond Back

Owner: PENINSULA BAY ENTERPRISES LTD CO, Port Bolivar, TX. More information available from US FCC via Universal Licensing System and Coast Guard Vessel Documentation Center.

Last reported at 2018-Jun-25 17:30 UTC. Time now 2018-Jun-25 17:50 UTC.
Position N 29°33' W 094°59'.

Length 11 m; draft 2.5 m.

Type: Towing. MMSI: 367384650.

Date/timePositionNaut miles runAvg speedWind from/ knotsBaromVisibWave heightAir tempDewpointWater temp
2018-Jun-25 17:30N 29°33' W 094°59'3 5.2
2018-Jun-25 17:01N 29°33' W 095°02'1 1.8
2018-Jun-25 16:31N 29°33' W 095°03'0 0.0
2018-Jun-25 16:00N 29°33' W 095°03'0 0.0
2018-Jun-25 15:29N 29°33' W 095°03'0 0.0
2018-Jun-25 15:00N 29°33' W 095°03'0 0.0
2018-Jun-25 14:30N 29°33' W 095°03'0 0.0
2018-Jun-25 13:59N 29°33' W 095°03'0 0.0
2018-Jun-25 13:30N 29°33' W 095°03'0 0.0
2018-Jun-25 13:00N 29°33' W 095°03'0 0.0
2018-Jun-25 12:30N 29°33' W 095°03'0 0.0
2018-Jun-25 12:00N 29°33' W 095°03'1 1.2
2018-Jun-25 11:30N 29°33' W 095°02'0 0.0
2018-Jun-25 11:00N 29°33' W 095°02'0 0.0
2018-Jun-25 10:31N 29°33' W 095°02'0 0.0
2018-Jun-25 10:01N 29°33' W 095°02'0 0.0
2018-Jun-25 09:30N 29°33' W 095°02'0 0.0
2018-Jun-25 09:00N 29°33' W 095°02'0 0.0
2018-Jun-25 08:31N 29°33' W 095°02'0 0.0
2018-Jun-25 08:00N 29°33' W 095°02'0 0.0
2018-Jun-25 07:30N 29°33' W 095°02'0 0.0
2018-Jun-25 07:00N 29°33' W 095°02'0 0.0
2018-Jun-25 06:31N 29°33' W 095°02'0 0.0
2018-Jun-25 06:01N 29°33' W 095°02'0 0.0
2018-Jun-25 05:30N 29°33' W 095°02'0 0.0
2018-Jun-25 05:00N 29°33' W 095°02'2 3.4
2018-Jun-25 04:31N 29°33' W 095°00'3 6.5
2018-Jun-25 04:01N 29°33' W 094°56'3 6.2
2018-Jun-25 03:30N 29°31' W 094°53'4 6.6
2018-Jun-25 02:51N 29°27' W 094°51'2 6.3
2018-Jun-25 02:30N 29°25' W 094°50'3 5.3
2018-Jun-25 02:00N 29°23' W 094°49'2 3.7
2018-Jun-25 01:31N 29°23' W 094°46'1 0.9
2018-Jun-25 00:58N 29°23' W 094°46'0 0.6
2018-Jun-25 00:29N 29°23' W 094°46'0 0.0
2018-Jun-24 23:59N 29°23' W 094°46'0 0.0
2018-Jun-24 23:25N 29°23' W 094°46'0 0.0
2018-Jun-24 22:58N 29°23' W 094°46'0 0.0
2018-Jun-24 22:29N 29°23' W 094°46'0 0.0
2018-Jun-24 21:56N 29°23' W 094°46'0 0.0
2018-Jun-24 21:15N 29°23' W 094°46'0 0.0
2018-Jun-24 21:00N 29°23' W 094°46'0 0.0
2018-Jun-24 20:26N 29°23' W 094°46'0 0.0
2018-Jun-24 19:58N 29°23' W 094°46'0 0.0
2018-Jun-24 19:30N 29°23' W 094°46'0 0.0
2018-Jun-24 19:00N 29°23' W 094°46'0 0.0
2018-Jun-24 18:29N 29°23' W 094°46'0 0.0
2018-Jun-24 18:00N 29°23' W 094°46'0 0.0
2018-Jun-24 17:17N 29°23' W 094°46'0 0.0
2018-Jun-24 17:00N 29°23' W 094°46'0 0.0
2018-Jun-24 01:08N 29°23' W 094°46'0 0.0
2018-Jun-23 22:15N 29°23' W 094°46'0 0.0
2018-Jun-23 21:56N 29°23' W 094°46'0 0.0
2018-Jun-23 21:26N 29°23' W 094°46'0 0.0
2018-Jun-23 20:55N 29°23' W 094°46'0 0.0
2018-Jun-23 19:17N 29°23' W 094°46'0 0.0
2018-Jun-23 18:58N 29°23' W 094°46'0 0.0
2018-Jun-23 17:20N 29°23' W 094°46'0 0.0
2018-Jun-23 17:00N 29°23' W 094°46'0 0.0
2018-Jun-23 16:30N 29°23' W 094°46'0 0.0
2018-Jun-23 16:00N 29°23' W 094°46'0 0.0
2018-Jun-23 15:26N 29°23' W 094°46'0 0.0
2018-Jun-23 15:00N 29°23' W 094°46'0 0.0
2018-Jun-23 14:31N 29°23' W 094°46'0 0.0
2018-Jun-23 14:01N 29°23' W 094°46'0 0.0
2018-Jun-23 13:29N 29°23' W 094°46'0 0.0
2018-Jun-23 12:57N 29°23' W 094°46'0 0.0
2018-Jun-23 12:29N 29°23' W 094°46'0 0.0
2018-Jun-23 12:00N 29°23' W 094°46'0 0.0
2018-Jun-23 11:26N 29°23' W 094°46'0 0.0
2018-Jun-23 11:00N 29°23' W 094°46'0 0.0
2018-Jun-23 10:30N 29°23' W 094°46'0 0.0
2018-Jun-23 09:58N 29°23' W 094°46'0 0.0
2018-Jun-23 09:30N 29°23' W 094°46'0 0.0
2018-Jun-23 08:59N 29°23' W 094°46'0 0.0
2018-Jun-23 08:28N 29°23' W 094°46'0 0.0
2018-Jun-23 07:58N 29°23' W 094°46'0 0.0
2018-Jun-23 07:20N 29°23' W 094°46'0 0.0
2018-Jun-23 06:44N 29°23' W 094°46'0 0.0
2018-Jun-23 06:30N 29°23' W 094°46'0 0.0
2018-Jun-23 06:00N 29°23' W 094°46'0 0.0
2018-Jun-23 05:30N 29°23' W 094°46'0 0.0
2018-Jun-23 05:01N 29°23' W 094°46'0 0.0
2018-Jun-23 04:30N 29°23' W 094°46'0 0.0
2018-Jun-23 04:01N 29°23' W 094°46'0 0.0
2018-Jun-23 03:30N 29°23' W 094°46'0 0.0
2018-Jun-23 03:00N 29°23' W 094°46'0 0.0
2018-Jun-23 02:30N 29°23' W 094°46'0 0.0
2018-Jun-23 02:00N 29°23' W 094°46'3 5.7
2018-Jun-23 01:30N 29°25' W 094°44'3 4.8
2018-Jun-23 00:58N 29°27' W 094°42'3 5.5
2018-Jun-23 00:30N 29°28' W 094°39'0 0.0
2018-Jun-23 00:00N 29°28' W 094°39'0 0.0
2018-Jun-22 23:28N 29°28' W 094°39'0 0.0
2018-Jun-22 23:00N 29°28' W 094°39'6 2.4
2018-Jun-22 20:26N 29°24' W 094°45'3 6.2
2018-Jun-22 19:56N 29°22' W 094°47'2 5.8
2018-Jun-22 19:30N 29°24' W 094°49'12 5.6
2018-Jun-22 17:25N 29°33' W 094°58'2 5.5
2018-Jun-22 17:00N 29°33' W 095°01'2 3.2
2018-Jun-22 16:30N 29°33' W 095°03'0 0.3
2018-Jun-22 16:00N 29°33' W 095°03'0 0.0
2018-Jun-22 15:31N 29°33' W 095°03'0 0.0
2018-Jun-22 15:01N 29°33' W 095°03'0 0.0
2018-Jun-22 14:30N 29°33' W 095°03'0 0.0
2018-Jun-22 14:00N 29°33' W 095°03'0 0.0
2018-Jun-22 13:30N 29°33' W 095°03'0 0.0
2018-Jun-22 13:01N 29°33' W 095°03'0 0.2
2018-Jun-22 12:30N 29°33' W 095°03'0 0.1
2018-Jun-22 12:00N 29°33' W 095°03'0 1.0
2018-Jun-22 11:30N 29°33' W 095°02'0 0.0
2018-Jun-22 11:00N 29°33' W 095°02'0 0.0
2018-Jun-22 10:30N 29°33' W 095°02'0 0.0
2018-Jun-22 10:00N 29°33' W 095°02'0 0.0
2018-Jun-22 09:30N 29°33' W 095°02'0 0.0
2018-Jun-22 09:00N 29°33' W 095°02'0 0.0
2018-Jun-22 08:30N 29°33' W 095°02'0 0.0
2018-Jun-22 08:01N 29°33' W 095°02'0 0.0
2018-Jun-22 07:30N 29°33' W 095°02'0 0.0
2018-Jun-22 07:00N 29°33' W 095°02'0 0.0
2018-Jun-22 06:31N 29°33' W 095°02'0 0.0
2018-Jun-22 06:00N 29°33' W 095°02'0 0.0
2018-Jun-22 05:30N 29°33' W 095°02'0 0.4
2018-Jun-22 05:00N 29°33' W 095°02'2 4.8
2018-Jun-22 04:31N 29°33' W 094°59'3 6.6
2018-Jun-22 04:00N 29°32' W 094°55'3 6.3
2018-Jun-22 03:29N 29°30' W 094°53'3 6.6
2018-Jun-22 03:00N 29°27' W 094°51'3 6.6
2018-Jun-22 02:30N 29°24' W 094°49'3 5.6
2018-Jun-22 02:00N 29°22' W 094°47'1 2.0
2018-Jun-22 01:30N 29°23' W 094°46'0 0.2
2018-Jun-22 01:00N 29°23' W 094°46'0 0.1
2018-Jun-22 00:30N 29°23' W 094°46'3 6.7
2018-Jun-22 00:00N 29°25' W 094°43'4 7.6
2018-Jun-21 23:30N 29°28' W 094°40'1 1.3
2018-Jun-21 23:00N 29°28' W 094°39'0 0.0
2018-Jun-21 22:30N 29°28' W 094°39'0 0.0
2018-Jun-21 22:00N 29°28' W 094°39'0 0.0
2018-Jun-21 21:30N 29°28' W 094°39'0 0.0
2018-Jun-21 21:00N 29°28' W 094°39'0 0.0
2018-Jun-21 20:30N 29°28' W 094°39'1 2.4
2018-Jun-21 19:57N 29°27' W 094°41'3 6.4
2018-Jun-21 19:30N 29°26' W 094°43'3 5.9
2018-Jun-21 18:59N 29°24' W 094°46'2 5.1
2018-Jun-21 18:30N 29°23' W 094°48'3 5.6
2018-Jun-21 17:58N 29°25' W 094°50'4 5.9
2018-Jun-21 17:22N 29°29' W 094°51'6 5.4
2018-Jun-21 16:12N 29°33' W 094°57'1 5.7
2018-Jun-21 15:59N 29°33' W 094°58'3 5.5
2018-Jun-21 15:30N 29°33' W 095°01'1 2.1
2018-Jun-21 15:00N 29°33' W 095°03'0 0.0
2018-Jun-21 14:30N 29°33' W 095°03'0 0.0
2018-Jun-21 14:00N 29°33' W 095°03'0 0.0
2018-Jun-21 13:31N 29°33' W 095°03'0 0.1
2018-Jun-21 13:01N 29°33' W 095°03'0 0.0
2018-Jun-21 12:31N 29°33' W 095°03'0 0.0
2018-Jun-21 12:00N 29°33' W 095°03'1 1.0
2018-Jun-21 11:31N 29°33' W 095°02'0 0.0
2018-Jun-21 11:00N 29°33' W 095°02'0 0.0
2018-Jun-21 10:30N 29°33' W 095°02'0 0.0
2018-Jun-21 10:00N 29°33' W 095°02'0 0.0
2018-Jun-21 09:31N 29°33' W 095°02'0 0.0
2018-Jun-21 09:00N 29°33' W 095°02'0 0.0
2018-Jun-21 08:31N 29°33' W 095°02'0 0.0
2018-Jun-21 08:01N 29°33' W 095°02'0 0.0
2018-Jun-21 07:31N 29°33' W 095°02'0 0.0
2018-Jun-21 07:00N 29°33' W 095°02'0 0.0
2018-Jun-21 06:30N 29°33' W 095°02'0 0.0
2018-Jun-21 06:00N 29°33' W 095°02'0 0.0
2018-Jun-21 05:30N 29°33' W 095°02'0 0.0
2018-Jun-21 05:00N 29°33' W 095°02'0 0.0
2018-Jun-21 04:30N 29°33' W 095°02'0 0.0
2018-Jun-21 04:01N 29°33' W 095°02'0 0.0
2018-Jun-21 03:31N 29°33' W 095°02'0 0.0
2018-Jun-21 03:00N 29°33' W 095°02'2 3.1
2018-Jun-21 02:30N 29°33' W 095°00'4 7.2
2018-Jun-21 01:56N 29°35' W 094°56'2 0.2
2018-Jun-20 18:21N 29°34' W 094°58'2 6.5
2018-Jun-20 18:00N 29°33' W 095°00'2 3.8
2018-Jun-20 17:30N 29°33' W 095°02'0 0.5
2018-Jun-20 17:01N 29°33' W 095°02'0 0.0
2018-Jun-20 16:30N 29°33' W 095°02'0 0.0
2018-Jun-20 16:00N 29°33' W 095°02'0 0.0
2018-Jun-20 15:30N 29°33' W 095°02'0 0.0
2018-Jun-20 15:01N 29°33' W 095°02'0 0.0
2018-Jun-20 14:30N 29°33' W 095°02'0 0.0
2018-Jun-20 14:00N 29°33' W 095°02'0 0.0
2018-Jun-20 13:22N 29°33' W 095°02'0 0.0
2018-Jun-20 13:00N 29°33' W 095°02'0 0.0
2018-Jun-20 12:30N 29°33' W 095°02'0 0.0
2018-Jun-20 12:01N 29°33' W 095°02'0 0.0
2018-Jun-20 11:30N 29°33' W 095°02'0 0.0
2018-Jun-20 11:00N 29°33' W 095°02'0 0.0
2018-Jun-20 10:29N 29°33' W 095°02'0 0.0
2018-Jun-20 09:59N 29°33' W 095°02'0 0.0
2018-Jun-20 09:30N 29°33' W 095°02'0 0.0
2018-Jun-20 09:00N 29°33' W 095°02'0 0.0
2018-Jun-20 08:29N 29°33' W 095°02'0 0.0
2018-Jun-20 08:01N 29°33' W 095°02'0 0.0
2018-Jun-20 07:29N 29°33' W 095°02'0 0.0
2018-Jun-20 07:00N 29°33' W 095°02'0 0.0
2018-Jun-20 06:30N 29°33' W 095°02'0 0.0
2018-Jun-20 05:59N 29°33' W 095°02'0 0.0
2018-Jun-20 05:31N 29°33' W 095°02'0 0.0
2018-Jun-20 04:59N 29°33' W 095°02'0 0.0
2018-Jun-20 04:30N 29°33' W 095°02'0 0.0
2018-Jun-20 04:00N 29°33' W 095°02'0 0.0
2018-Jun-20 03:30N 29°33' W 095°02'0 0.0
2018-Jun-20 03:01N 29°33' W 095°02'0 0.0
2018-Jun-20 02:27N 29°33' W 095°02'0 0.0
2018-Jun-20 02:01N 29°33' W 095°02'0 0.0
2018-Jun-20 01:30N 29°33' W 095°02'0 0.0
2018-Jun-20 01:00N 29°33' W 095°02'0 0.0
2018-Jun-20 00:30N 29°33' W 095°02'0 0.0
2018-Jun-20 00:00N 29°33' W 095°02'0 0.0
2018-Jun-19 23:30N 29°33' W 095°02'0 0.0
2018-Jun-19 23:00N 29°33' W 095°02'0 0.0
2018-Jun-19 22:30N 29°33' W 095°02'0 0.0
2018-Jun-19 22:00N 29°33' W 095°02'0 0.0
2018-Jun-19 21:31N 29°33' W 095°02'0 0.0
2018-Jun-19 20:58N 29°33' W 095°02'0 0.0
2018-Jun-19 20:30N 29°33' W 095°02'0 0.0
2018-Jun-19 20:00N 29°33' W 095°02'0 0.0
2018-Jun-19 19:31N 29°33' W 095°02'0 0.0
2018-Jun-19 19:00N 29°33' W 095°02'0 0.0
2018-Jun-19 18:30N 29°33' W 095°02'0 0.0
2018-Jun-19 18:01N 29°33' W 095°02'0 0.0
2018-Jun-19 17:30N 29°33' W 095°02'0 0.0
2018-Jun-19 17:00N 29°33' W 095°02'0 0.0
2018-Jun-19 16:29N 29°33' W 095°02'0 0.0
2018-Jun-19 16:00N 29°33' W 095°02'0 0.0
2018-Jun-19 15:31N 29°33' W 095°02'0 0.0
2018-Jun-19 14:57N 29°33' W 095°02'0 1.0
2018-Jun-19 14:30N 29°33' W 095°02'0 0.0
2018-Jun-19 14:00N 29°33' W 095°02'1 1.0
2018-Jun-19 13:30N 29°33' W 095°03'0 0.0
2018-Jun-19 13:00N 29°33' W 095°03'0 0.0
2018-Jun-19 12:30N 29°33' W 095°03'0 0.0
2018-Jun-19 12:00N 29°33' W 095°03'1 1.0
2018-Jun-19 11:30N 29°33' W 095°02'0 0.0
2018-Jun-19 11:00N 29°33' W 095°02'0 0.0
2018-Jun-19 10:30N 29°33' W 095°02'0 0.0
2018-Jun-19 10:00N 29°33' W 095°02'0 0.0
2018-Jun-19 09:30N 29°33' W 095°02'0 0.0
2018-Jun-19 09:00N 29°33' W 095°02'0 0.0
2018-Jun-19 08:30N 29°33' W 095°02'0 0.0
2018-Jun-19 08:00N 29°33' W 095°02'0 0.0
2018-Jun-19 07:30N 29°33' W 095°02'0 0.0
2018-Jun-19 07:00N 29°33' W 095°02'0 0.0
2018-Jun-19 06:31N 29°33' W 095°02'0 0.0
2018-Jun-19 06:00N 29°33' W 095°02'0 0.0
2018-Jun-19 05:30N 29°33' W 095°02'0 0.0
2018-Jun-19 05:00N 29°33' W 095°02'0 0.0
2018-Jun-19 04:30N 29°33' W 095°02'1 1.8
2018-Jun-19 04:00N 29°33' W 095°01'4 7.2
2018-Jun-19 03:30N 29°33' W 094°57'5 7.0
2018-Jun-19 02:49N 29°30' W 094°52'3 7.2
2018-Jun-19 02:20N 29°27' W 094°50'2 7.1
2018-Jun-19 02:00N 29°25' W 094°49'3 6.3
2018-Jun-19 01:30N 29°22' W 094°47'5 7.2
2018-Jun-19 00:50N 29°26' W 094°43'3 0.6
2018-Jun-18 20:27N 29°24' W 094°45'1 2.4
2018-Jun-18 20:00N 29°23' W 094°46'0 0.0
2018-Jun-18 19:21N 29°23' W 094°46'0 0.0
2018-Jun-18 18:54N 29°23' W 094°46'0 0.2
2018-Jun-18 18:25N 29°23' W 094°46'2 5.1
2018-Jun-18 17:59N 29°23' W 094°49'14 5.2
2018-Jun-18 15:20N 29°33' W 094°59'2 5.4
2018-Jun-18 15:01N 29°33' W 095°01'1 2.5
2018-Jun-18 14:30N 29°33' W 095°03'0 0.0
2018-Jun-18 14:00N 29°33' W 095°03'0 0.0
2018-Jun-18 13:30N 29°33' W 095°03'0 0.0
2018-Jun-18 13:00N 29°33' W 095°03'0 0.0
2018-Jun-18 12:30N 29°33' W 095°03'0 0.0
2018-Jun-18 12:00N 29°33' W 095°03'0 0.0
2018-Jun-18 11:30N 29°33' W 095°03'1 1.0
2018-Jun-18 11:01N 29°33' W 095°02'0 0.0
2018-Jun-18 10:31N 29°33' W 095°02'0 0.0
2018-Jun-18 10:01N 29°33' W 095°02'0 0.0
2018-Jun-18 09:30N 29°33' W 095°02'0 0.0
2018-Jun-18 09:00N 29°33' W 095°02'0 0.0
2018-Jun-18 08:30N 29°33' W 095°02'0 0.0
2018-Jun-18 08:01N 29°33' W 095°02'0 0.0
2018-Jun-18 07:30N 29°33' W 095°02'0 0.0
2018-Jun-18 07:00N 29°33' W 095°02'0 0.0
2018-Jun-18 06:30N 29°33' W 095°02'0 0.0
2018-Jun-18 06:00N 29°33' W 095°02'0 0.0
2018-Jun-18 05:30N 29°33' W 095°02'0 0.0
2018-Jun-18 05:01N 29°33' W 095°02'0 0.0
2018-Jun-18 04:31N 29°33' W 095°02'0 0.0
2018-Jun-18 04:01N 29°33' W 095°02'3 5.1
2018-Jun-18 03:30N 29°33' W 094°59'10 6.4
2018-Jun-18 02:01N 29°27' W 094°50'4 7.0
2018-Jun-18 01:31N 29°24' W 094°49'2 4.6
2018-Jun-18 01:00N 29°23' W 094°46'0 0.0
2018-Jun-16 00:53N 29°23' W 094°46'0 0.0
2018-Jun-16 00:30N 29°23' W 094°46'0 0.0
2018-Jun-16 00:00N 29°23' W 094°46'0 0.3
2018-Jun-15 23:30N 29°23' W 094°46'3 6.2
2018-Jun-15 23:00N 29°25' W 094°44'3 5.9
2018-Jun-15 22:26N 29°27' W 094°41'1 2.0
2018-Jun-15 21:44N 29°28' W 094°39'0 0.0
2018-Jun-15 21:20N 29°28' W 094°39'0 0.0
2018-Jun-15 20:14N 29°28' W 094°39'7 5.2
2018-Jun-15 18:51N 29°24' W 094°46'2 5.4
2018-Jun-15 18:30N 29°22' W 094°47'2 4.0
2018-Jun-15 17:59N 29°24' W 094°49'  

Dump ship's entire track history